sensor_id;sensor_type;location;lat;lon;timestamp;temperature;humidity
26655;DHT22;14278;50.784;4.630;2022-08-21T00:00:32;16.40;99.90
26655;DHT22;14278;50.784;4.630;2022-08-21T00:03:03;16.50;99.90
26655;DHT22;14278;50.784;4.630;2022-08-21T00:05:31;16.60;99.90
26655;DHT22;14278;50.784;4.630;2022-08-21T00:07:57;16.80;99.90
26655;DHT22;14278;50.784;4.630;2022-08-21T00:10:25;16.70;99.90
26655;DHT22;14278;50.784;4.630;2022-08-21T00:12:51;16.60;99.90
26655;DHT22;14278;50.784;4.630;2022-08-21T00:15:20;16.60;99.90
26655;DHT22;14278;50.784;4.630;2022-08-21T00:17:46;16.80;99.90
26655;DHT22;14278;50.784;4.630;2022-08-21T00:20:16;16.90;99.90
26655;DHT22;14278;50.784;4.630;2022-08-21T00:22:44;16.70;99.90
26655;DHT22;14278;50.784;4.630;2022-08-21T00:25:11;16.40;99.90
26655;DHT22;14278;50.784;4.630;2022-08-21T00:27:38;16.40;99.90
26655;DHT22;14278;50.784;4.630;2022-08-21T00:30:06;16.20;99.90
26655;DHT22;14278;50.784;4.630;2022-08-21T00:32:33;16.40;99.90
26655;DHT22;14278;50.784;4.630;2022-08-21T00:35:00;16.60;99.90
26655;DHT22;14278;50.784;4.630;2022-08-21T00:37:25;16.80;99.90
26655;DHT22;14278;50.784;4.630;2022-08-21T00:39:52;16.60;99.90
26655;DHT22;14278;50.784;4.630;2022-08-21T00:42:18;16.50;99.90
26655;DHT22;14278;50.784;4.630;2022-08-21T00:44:46;16.60;99.90
26655;DHT22;14278;50.784;4.630;2022-08-21T00:47:14;16.40;99.90
26655;DHT22;14278;50.784;4.630;2022-08-21T00:49:40;16.40;99.90
26655;DHT22;14278;50.784;4.630;2022-08-21T00:52:10;16.30;99.90
26655;DHT22;14278;50.784;4.630;2022-08-21T00:54:36;16.10;99.90
26655;DHT22;14278;50.784;4.630;2022-08-21T00:57:09;15.90;99.90
26655;DHT22;14278;50.784;4.630;2022-08-21T00:59:38;15.90;99.90
26655;DHT22;14278;50.784;4.630;2022-08-21T01:02:07;16.00;99.90
26655;DHT22;14278;50.784;4.630;2022-08-21T01:04:34;15.90;99.90
26655;DHT22;14278;50.784;4.630;2022-08-21T01:07:00;15.80;99.90
26655;DHT22;14278;50.784;4.630;2022-08-21T01:09:27;15.70;99.90
26655;DHT22;14278;50.784;4.630;2022-08-21T01:11:54;15.60;99.90
26655;DHT22;14278;50.784;4.630;2022-08-21T01:14:20;15.90;99.90
26655;DHT22;14278;50.784;4.630;2022-08-21T01:16:49;16.20;99.90
26655;DHT22;14278;50.784;4.630;2022-08-21T01:19:17;16.40;99.90
26655;DHT22;14278;50.784;4.630;2022-08-21T01:21:43;16.40;99.90
26655;DHT22;14278;50.784;4.630;2022-08-21T01:24:11;16.20;99.90
26655;DHT22;14278;50.784;4.630;2022-08-21T01:26:37;15.90;99.90
26655;DHT22;14278;50.784;4.630;2022-08-21T01:31:50;15.60;99.90
26655;DHT22;14278;50.784;4.630;2022-08-21T01:34:17;15.60;99.90
26655;DHT22;14278;50.784;4.630;2022-08-21T01:36:44;15.60;99.90
26655;DHT22;14278;50.784;4.630;2022-08-21T01:39:10;15.50;99.90
26655;DHT22;14278;50.784;4.630;2022-08-21T01:41:36;15.70;99.90
26655;DHT22;14278;50.784;4.630;2022-08-21T01:44:02;16.00;99.90
26655;DHT22;14278;50.784;4.630;2022-08-21T01:46:29;16.20;99.90
26655;DHT22;14278;50.784;4.630;2022-08-21T01:48:55;16.10;99.90
26655;DHT22;14278;50.784;4.630;2022-08-21T01:51:21;16.00;99.90
26655;DHT22;14278;50.784;4.630;2022-08-21T01:53:47;15.90;99.90
26655;DHT22;14278;50.784;4.630;2022-08-21T01:56:14;16.00;99.90
26655;DHT22;14278;50.784;4.630;2022-08-21T01:58:43;16.30;99.90
26655;DHT22;14278;50.784;4.630;2022-08-21T02:01:10;16.40;99.90
26655;DHT22;14278;50.784;4.630;2022-08-21T02:03:36;16.20;99.90
26655;DHT22;14278;50.784;4.630;2022-08-21T02:06:03;16.00;99.90
26655;DHT22;14278;50.784;4.630;2022-08-21T02:08:30;16.10;99.90
26655;DHT22;14278;50.784;4.630;2022-08-21T02:10:56;15.90;99.90
26655;DHT22;14278;50.784;4.630;2022-08-21T02:13:22;15.60;99.90
26655;DHT22;14278;50.784;4.630;2022-08-21T02:15:48;15.50;99.90
26655;DHT22;14278;50.784;4.630;2022-08-21T02:18:13;15.60;99.90
26655;DHT22;14278;50.784;4.630;2022-08-21T02:20:43;15.60;99.90
26655;DHT22;14278;50.784;4.630;2022-08-21T02:23:11;15.50;99.90
26655;DHT22;14278;50.784;4.630;2022-08-21T02:25:38;15.60;99.90
26655;DHT22;14278;50.784;4.630;2022-08-21T02:28:06;15.60;99.90
26655;DHT22;14278;50.784;4.630;2022-08-21T02:30:36;15.60;99.90
26655;DHT22;14278;50.784;4.630;2022-08-21T02:33:04;15.50;99.90
26655;DHT22;14278;50.784;4.630;2022-08-21T02:35:31;15.30;99.90
26655;DHT22;14278;50.784;4.630;2022-08-21T02:37:59;15.10;99.90
26655;DHT22;14278;50.784;4.630;2022-08-21T02:40:31;14.90;99.90
26655;DHT22;14278;50.784;4.630;2022-08-21T02:42:58;14.80;99.90
26655;DHT22;14278;50.784;4.630;2022-08-21T02:45:25;14.70;99.90
26655;DHT22;14278;50.784;4.630;2022-08-21T02:47:54;14.70;99.90
26655;DHT22;14278;50.784;4.630;2022-08-21T02:50:26;15.00;99.90
26655;DHT22;14278;50.784;4.630;2022-08-21T02:52:52;15.30;99.90
26655;DHT22;14278;50.784;4.630;2022-08-21T02:55:24;15.40;99.90
26655;DHT22;14278;50.784;4.630;2022-08-21T02:57:52;15.70;99.90
26655;DHT22;14278;50.784;4.630;2022-08-21T03:00:19;15.70;99.90
26655;DHT22;14278;50.784;4.630;2022-08-21T03:02:47;15.60;99.90
26655;DHT22;14278;50.784;4.630;2022-08-21T03:05:13;15.40;99.90
26655;DHT22;14278;50.784;4.630;2022-08-21T03:07:41;15.40;99.90
26655;DHT22;14278;50.784;4.630;2022-08-21T03:10:07;15.50;99.90
26655;DHT22;14278;50.784;4.630;2022-08-21T03:12:34;15.50;99.90
26655;DHT22;14278;50.784;4.630;2022-08-21T03:15:02;15.50;99.90
26655;DHT22;14278;50.784;4.630;2022-08-21T03:17:29;15.30;99.90
26655;DHT22;14278;50.784;4.630;2022-08-21T03:19:55;15.10;99.90
26655;DHT22;14278;50.784;4.630;2022-08-21T03:22:20;15.20;99.90
26655;DHT22;14278;50.784;4.630;2022-08-21T03:24:47;15.00;99.90
26655;DHT22;14278;50.784;4.630;2022-08-21T03:27:12;14.80;99.90
26655;DHT22;14278;50.784;4.630;2022-08-21T03:29:39;15.00;99.90
26655;DHT22;14278;50.784;4.630;2022-08-21T03:32:05;15.10;99.90
26655;DHT22;14278;50.784;4.630;2022-08-21T03:34:37;15.00;99.90
26655;DHT22;14278;50.784;4.630;2022-08-21T03:37:06;15.20;99.90
26655;DHT22;14278;50.784;4.630;2022-08-21T03:39:33;15.10;99.90
26655;DHT22;14278;50.784;4.630;2022-08-21T03:41:59;15.00;99.90
26655;DHT22;14278;50.784;4.630;2022-08-21T03:44:26;14.90;99.90
26655;DHT22;14278;50.784;4.630;2022-08-21T03:46:53;14.50;99.90
26655;DHT22;14278;50.784;4.630;2022-08-21T03:49:20;14.90;99.90
26655;DHT22;14278;50.784;4.630;2022-08-21T03:51:45;15.10;99.90
26655;DHT22;14278;50.784;4.630;2022-08-21T03:54:11;15.20;99.90
26655;DHT22;14278;50.784;4.630;2022-08-21T03:56:37;15.30;99.90
26655;DHT22;14278;50.784;4.630;2022-08-21T03:59:03;15.20;99.90
26655;DHT22;14278;50.784;4.630;2022-08-21T04:01:30;15.10;99.90
26655;DHT22;14278;50.784;4.630;2022-08-21T04:03:56;15.10;99.90
26655;DHT22;14278;50.784;4.630;2022-08-21T04:06:22;14.60;99.90
26655;DHT22;14278;50.784;4.630;2022-08-21T04:08:47;14.30;99.90
26655;DHT22;14278;50.784;4.630;2022-08-21T04:11:14;14.30;99.90
26655;DHT22;14278;50.784;4.630;2022-08-21T04:13:40;14.60;99.90
26655;DHT22;14278;50.784;4.630;2022-08-21T04:16:07;14.70;99.90
26655;DHT22;14278;50.784;4.630;2022-08-21T04:18:33;15.00;99.90
26655;DHT22;14278;50.784;4.630;2022-08-21T04:21:00;15.10;99.90
26655;DHT22;14278;50.784;4.630;2022-08-21T04:23:27;15.00;99.90
26655;DHT22;14278;50.784;4.630;2022-08-21T04:25:54;15.00;99.90
26655;DHT22;14278;50.784;4.630;2022-08-21T04:28:22;14.80;99.90
26655;DHT22;14278;50.784;4.630;2022-08-21T04:30:49;14.80;99.90
26655;DHT22;14278;50.784;4.630;2022-08-21T04:33:15;15.00;99.90
26655;DHT22;14278;50.784;4.630;2022-08-21T04:35:41;15.20;99.90
26655;DHT22;14278;50.784;4.630;2022-08-21T04:38:08;14.90;99.90
26655;DHT22;14278;50.784;4.630;2022-08-21T04:40:34;14.70;99.90
26655;DHT22;14278;50.784;4.630;2022-08-21T04:43:06;14.80;99.90
26655;DHT22;14278;50.784;4.630;2022-08-21T04:45:37;14.70;99.90
26655;DHT22;14278;50.784;4.630;2022-08-21T04:48:05;14.60;99.90
26655;DHT22;14278;50.784;4.630;2022-08-21T04:50:49;14.60;99.90
26655;DHT22;14278;50.784;4.630;2022-08-21T04:53:22;14.80;99.90
26655;DHT22;14278;50.784;4.630;2022-08-21T04:55:50;14.60;99.90
26655;DHT22;14278;50.784;4.630;2022-08-21T04:58:20;14.70;99.90
26655;DHT22;14278;50.784;4.630;2022-08-21T05:00:47;14.60;99.90
26655;DHT22;14278;50.784;4.630;2022-08-21T05:03:14;14.50;99.90
26655;DHT22;14278;50.784;4.630;2022-08-21T05:05:42;14.80;99.90
26655;DHT22;14278;50.784;4.630;2022-08-21T05:08:11;15.00;99.90
26655;DHT22;14278;50.784;4.630;2022-08-21T05:10:37;15.00;99.90
26655;DHT22;14278;50.784;4.630;2022-08-21T05:13:05;15.10;99.90
26655;DHT22;14278;50.784;4.630;2022-08-21T05:15:32;15.30;99.90
26655;DHT22;14278;50.784;4.630;2022-08-21T05:17:57;15.40;99.90
26655;DHT22;14278;50.784;4.630;2022-08-21T05:20:23;15.50;99.90
26655;DHT22;14278;50.784;4.630;2022-08-21T05:22:49;15.30;99.90
26655;DHT22;14278;50.784;4.630;2022-08-21T05:25:16;15.40;99.90
26655;DHT22;14278;50.784;4.630;2022-08-21T05:27:42;15.50;99.90
26655;DHT22;14278;50.784;4.630;2022-08-21T05:30:09;15.50;99.90
26655;DHT22;14278;50.784;4.630;2022-08-21T05:32:36;15.40;99.90
26655;DHT22;14278;50.784;4.630;2022-08-21T05:35:06;15.50;99.90
26655;DHT22;14278;50.784;4.630;2022-08-21T05:37:33;15.50;99.90
26655;DHT22;14278;50.784;4.630;2022-08-21T05:39:59;15.70;99.90
26655;DHT22;14278;50.784;4.630;2022-08-21T05:42:25;15.70;99.90
26655;DHT22;14278;50.784;4.630;2022-08-21T05:44:51;15.80;99.90
26655;DHT22;14278;50.784;4.630;2022-08-21T05:47:18;15.90;99.90
26655;DHT22;14278;50.784;4.630;2022-08-21T05:49:43;15.90;99.90
26655;DHT22;14278;50.784;4.630;2022-08-21T05:52:10;15.90;99.90
26655;DHT22;14278;50.784;4.630;2022-08-21T05:54:37;16.30;99.90
26655;DHT22;14278;50.784;4.630;2022-08-21T05:57:03;16.90;99.90
26655;DHT22;14278;50.784;4.630;2022-08-21T05:59:29;17.50;99.90
26655;DHT22;14278;50.784;4.630;2022-08-21T06:01:54;17.80;99.90
26655;DHT22;14278;50.784;4.630;2022-08-21T06:04:21;17.60;99.90
26655;DHT22;14278;50.784;4.630;2022-08-21T06:06:46;17.50;99.90
26655;DHT22;14278;50.784;4.630;2022-08-21T06:09:13;17.40;99.90
26655;DHT22;14278;50.784;4.630;2022-08-21T06:11:38;17.10;99.90
26655;DHT22;14278;50.784;4.630;2022-08-21T06:14:04;17.10;99.90
26655;DHT22;14278;50.784;4.630;2022-08-21T06:16:32;17.00;99.90
26655;DHT22;14278;50.784;4.630;2022-08-21T06:18:58;17.00;99.90
26655;DHT22;14278;50.784;4.630;2022-08-21T06:21:24;17.20;99.90
26655;DHT22;14278;50.784;4.630;2022-08-21T06:23:50;17.30;99.90
26655;DHT22;14278;50.784;4.630;2022-08-21T06:26:16;17.30;99.90
26655;DHT22;14278;50.784;4.630;2022-08-21T06:28:42;17.30;99.90
26655;DHT22;14278;50.784;4.630;2022-08-21T06:31:14;17.30;99.90
26655;DHT22;14278;50.784;4.630;2022-08-21T06:33:41;17.50;99.90
26655;DHT22;14278;50.784;4.630;2022-08-21T06:36:07;17.60;99.90
26655;DHT22;14278;50.784;4.630;2022-08-21T06:38:33;18.00;99.90
26655;DHT22;14278;50.784;4.630;2022-08-21T06:40:59;19.30;99.90
26655;DHT22;14278;50.784;4.630;2022-08-21T06:43:25;22.70;99.90
26655;DHT22;14278;50.784;4.630;2022-08-21T06:45:50;26.40;99.90
26655;DHT22;14278;50.784;4.630;2022-08-21T06:48:16;29.40;99.90
26655;DHT22;14278;50.784;4.630;2022-08-21T06:50:42;31.10;99.90
26655;DHT22;14278;50.784;4.630;2022-08-21T06:53:11;31.90;99.90
26655;DHT22;14278;50.784;4.630;2022-08-21T06:55:38;32.20;99.90
26655;DHT22;14278;50.784;4.630;2022-08-21T06:58:04;33.60;99.90
26655;DHT22;14278;50.784;4.630;2022-08-21T07:00:31;34.50;99.90
26655;DHT22;14278;50.784;4.630;2022-08-21T07:02:57;35.90;98.30
26655;DHT22;14278;50.784;4.630;2022-08-21T07:05:26;37.40;96.00
26655;DHT22;14278;50.784;4.630;2022-08-21T07:07:52;37.20;93.60
26655;DHT22;14278;50.784;4.630;2022-08-21T07:10:18;36.90;90.90
26655;DHT22;14278;50.784;4.630;2022-08-21T07:12:43;37.60;90.20
26655;DHT22;14278;50.784;4.630;2022-08-21T07:15:10;38.20;88.10
26655;DHT22;14278;50.784;4.630;2022-08-21T07:17:36;38.30;86.50
26655;DHT22;14278;50.784;4.630;2022-08-21T07:20:03;37.40;84.70
26655;DHT22;14278;50.784;4.630;2022-08-21T07:22:29;36.80;87.20
26655;DHT22;14278;50.784;4.630;2022-08-21T07:24:56;36.70;86.80
26655;DHT22;14278;50.784;4.630;2022-08-21T07:27:21;35.70;87.70
26655;DHT22;14278;50.784;4.630;2022-08-21T07:29:48;36.00;87.10
26655;DHT22;14278;50.784;4.630;2022-08-21T07:32:14;37.00;85.90
26655;DHT22;14278;50.784;4.630;2022-08-21T07:34:41;35.10;88.30
26655;DHT22;14278;50.784;4.630;2022-08-21T07:37:07;32.00;91.30
26655;DHT22;14278;50.784;4.630;2022-08-21T07:39:32;31.90;92.10
26655;DHT22;14278;50.784;4.630;2022-08-21T07:41:59;30.70;94.40
26655;DHT22;14278;50.784;4.630;2022-08-21T07:44:24;29.40;97.20
26655;DHT22;14278;50.784;4.630;2022-08-21T07:46:50;29.70;97.10
26655;DHT22;14278;50.784;4.630;2022-08-21T07:49:16;28.70;98.80
26655;DHT22;14278;50.784;4.630;2022-08-21T07:51:42;28.00;99.90
26655;DHT22;14278;50.784;4.630;2022-08-21T07:54:08;26.50;99.90
26655;DHT22;14278;50.784;4.630;2022-08-21T07:56:34;25.90;99.90
26655;DHT22;14278;50.784;4.630;2022-08-21T07:59:00;25.40;99.90
26655;DHT22;14278;50.784;4.630;2022-08-21T08:01:28;25.10;99.90
26655;DHT22;14278;50.784;4.630;2022-08-21T08:03:54;24.30;99.90
26655;DHT22;14278;50.784;4.630;2022-08-21T08:06:21;24.20;99.90
26655;DHT22;14278;50.784;4.630;2022-08-21T08:08:47;24.70;99.90
26655;DHT22;14278;50.784;4.630;2022-08-21T08:11:13;25.60;99.90
26655;DHT22;14278;50.784;4.630;2022-08-21T08:13:43;26.20;99.90
26655;DHT22;14278;50.784;4.630;2022-08-21T08:16:09;27.70;99.90
26655;DHT22;14278;50.784;4.630;2022-08-21T08:18:36;28.50;99.90
26655;DHT22;14278;50.784;4.630;2022-08-21T08:21:02;29.00;99.90
26655;DHT22;14278;50.784;4.630;2022-08-21T08:23:28;30.20;99.90
26655;DHT22;14278;50.784;4.630;2022-08-21T08:25:56;29.10;99.90
26655;DHT22;14278;50.784;4.630;2022-08-21T08:28:22;28.50;99.90
26655;DHT22;14278;50.784;4.630;2022-08-21T08:30:48;27.60;99.90
26655;DHT22;14278;50.784;4.630;2022-08-21T08:33:15;26.90;99.90
26655;DHT22;14278;50.784;4.630;2022-08-21T08:35:46;26.20;99.90
26655;DHT22;14278;50.784;4.630;2022-08-21T08:38:15;25.60;99.90
26655;DHT22;14278;50.784;4.630;2022-08-21T08:43:17;24.80;99.90
26655;DHT22;14278;50.784;4.630;2022-08-21T08:45:48;25.60;99.90
26655;DHT22;14278;50.784;4.630;2022-08-21T08:48:26;26.40;99.90
26655;DHT22;14278;50.784;4.630;2022-08-21T08:50:57;26.90;99.90
26655;DHT22;14278;50.784;4.630;2022-08-21T08:53:45;27.50;99.90
26655;DHT22;14278;50.784;4.630;2022-08-21T08:56:13;27.80;99.90
26655;DHT22;14278;50.784;4.630;2022-08-21T08:58:42;27.50;99.90
26655;DHT22;14278;50.784;4.630;2022-08-21T09:01:17;26.50;99.90
26655;DHT22;14278;50.784;4.630;2022-08-21T09:03:44;26.10;99.90
26655;DHT22;14278;50.784;4.630;2022-08-21T09:06:44;25.40;99.90
26655;DHT22;14278;50.784;4.630;2022-08-21T09:09:48;24.50;99.90
26655;DHT22;14278;50.784;4.630;2022-08-21T09:12:33;24.90;99.90
26655;DHT22;14278;50.784;4.630;2022-08-21T09:15:22;24.70;99.90
26655;DHT22;14278;50.784;4.630;2022-08-21T09:18:01;24.50;99.90
26655;DHT22;14278;50.784;4.630;2022-08-21T09:20:45;24.00;99.90
26655;DHT22;14278;50.784;4.630;2022-08-21T09:26:23;24.20;99.90
26655;DHT22;14278;50.784;4.630;2022-08-21T09:28:56;23.80;99.90
26655;DHT22;14278;50.784;4.630;2022-08-21T09:31:30;23.60;99.90
26655;DHT22;14278;50.784;4.630;2022-08-21T09:33:58;23.60;99.90
26655;DHT22;14278;50.784;4.630;2022-08-21T09:36:35;23.70;99.90
26655;DHT22;14278;50.784;4.630;2022-08-21T09:39:03;23.70;99.90
26655;DHT22;14278;50.784;4.630;2022-08-21T09:41:33;24.00;99.90
26655;DHT22;14278;50.784;4.630;2022-08-21T09:44:01;23.70;99.90
26655;DHT22;14278;50.784;4.630;2022-08-21T09:46:27;23.70;99.90
26655;DHT22;14278;50.784;4.630;2022-08-21T09:48:58;23.60;99.90
26655;DHT22;14278;50.784;4.630;2022-08-21T09:54:13;23.80;99.90
26655;DHT22;14278;50.784;4.630;2022-08-21T09:56:56;23.80;99.90
26655;DHT22;14278;50.784;4.630;2022-08-21T09:59:43;24.20;99.90
26655;DHT22;14278;50.784;4.630;2022-08-21T10:02:29;24.40;99.90
26655;DHT22;14278;50.784;4.630;2022-08-21T10:04:58;24.50;99.90
26655;DHT22;14278;50.784;4.630;2022-08-21T10:07:27;24.80;99.90
26655;DHT22;14278;50.784;4.630;2022-08-21T10:10:02;25.10;99.90
26655;DHT22;14278;50.784;4.630;2022-08-21T10:18:27;24.50;99.90
26655;DHT22;14278;50.784;4.630;2022-08-21T10:21:10;24.50;99.90
26655;DHT22;14278;50.784;4.630;2022-08-21T10:32:23;25.10;99.90
26655;DHT22;14278;50.784;4.630;2022-08-21T10:40:50;25.60;99.90
26655;DHT22;14278;50.784;4.630;2022-08-21T10:43:43;25.50;99.90
26655;DHT22;14278;50.784;4.630;2022-08-21T10:46:48;25.80;99.90
26655;DHT22;14278;50.784;4.630;2022-08-21T10:52:25;25.90;99.90
26655;DHT22;14278;50.784;4.630;2022-08-21T10:57:49;28.40;99.90
26655;DHT22;14278;50.784;4.630;2022-08-21T11:00:26;28.50;99.90
26655;DHT22;14278;50.784;4.630;2022-08-21T11:03:12;27.20;99.90
26655;DHT22;14278;50.784;4.630;2022-08-21T11:05:50;26.70;99.90
26655;DHT22;14278;50.784;4.630;2022-08-21T11:11:06;27.60;99.90
26655;DHT22;14278;50.784;4.630;2022-08-21T11:13:49;28.20;99.90
26655;DHT22;14278;50.784;4.630;2022-08-21T11:16:31;29.00;99.90
26655;DHT22;14278;50.784;4.630;2022-08-21T11:19:00;30.20;99.90
26655;DHT22;14278;50.784;4.630;2022-08-21T11:21:53;31.30;99.90
26655;DHT22;14278;50.784;4.630;2022-08-21T11:24:38;31.90;99.90
26655;DHT22;14278;50.784;4.630;2022-08-21T11:27:17;31.30;99.90
26655;DHT22;14278;50.784;4.630;2022-08-21T11:29:47;30.50;99.90
26655;DHT22;14278;50.784;4.630;2022-08-21T11:35:19;29.40;99.90
26655;DHT22;14278;50.784;4.630;2022-08-21T11:43:41;27.00;99.90
26655;DHT22;14278;50.784;4.630;2022-08-21T11:52:08;28.20;99.90
26655;DHT22;14278;50.784;4.630;2022-08-21T11:54:43;27.70;99.90
26655;DHT22;14278;50.784;4.630;2022-08-21T11:57:24;27.00;99.90
26655;DHT22;14278;50.784;4.630;2022-08-21T12:00:00;26.60;99.90
26655;DHT22;14278;50.784;4.630;2022-08-21T12:02:34;26.10;99.90
26655;DHT22;14278;50.784;4.630;2022-08-21T12:05:07;26.70;99.90
26655;DHT22;14278;50.784;4.630;2022-08-21T12:07:43;27.10;99.90
26655;DHT22;14278;50.784;4.630;2022-08-21T12:10:19;28.10;99.90
26655;DHT22;14278;50.784;4.630;2022-08-21T12:13:06;28.20;99.90
26655;DHT22;14278;50.784;4.630;2022-08-21T12:15:34;27.20;99.90
26655;DHT22;14278;50.784;4.630;2022-08-21T12:18:18;27.70;99.90
26655;DHT22;14278;50.784;4.630;2022-08-21T12:23:57;27.80;99.90
26655;DHT22;14278;50.784;4.630;2022-08-21T12:26:30;27.20;99.90
26655;DHT22;14278;50.784;4.630;2022-08-21T12:29:16;27.70;99.90
26655;DHT22;14278;50.784;4.630;2022-08-21T12:31:57;27.80;99.90
26655;DHT22;14278;50.784;4.630;2022-08-21T12:34:36;27.90;99.90
26655;DHT22;14278;50.784;4.630;2022-08-21T12:37:09;28.00;99.90
26655;DHT22;14278;50.784;4.630;2022-08-21T12:39:44;28.00;99.90
26655;DHT22;14278;50.784;4.630;2022-08-21T12:42:19;27.50;99.90
26655;DHT22;14278;50.784;4.630;2022-08-21T12:44:54;27.50;99.90
26655;DHT22;14278;50.784;4.630;2022-08-21T12:50:13;27.20;99.90
26655;DHT22;14278;50.784;4.630;2022-08-21T12:52:50;27.10;99.90
26655;DHT22;14278;50.784;4.630;2022-08-21T12:55:29;27.30;99.90
26655;DHT22;14278;50.784;4.630;2022-08-21T12:57:59;27.50;99.90
26655;DHT22;14278;50.784;4.630;2022-08-21T13:00:28;27.30;99.90
26655;DHT22;14278;50.784;4.630;2022-08-21T13:02:55;27.30;99.90
26655;DHT22;14278;50.784;4.630;2022-08-21T13:05:31;26.90;99.90
26655;DHT22;14278;50.784;4.630;2022-08-21T13:07:58;26.80;99.90
26655;DHT22;14278;50.784;4.630;2022-08-21T13:10:26;26.80;99.90
26655;DHT22;14278;50.784;4.630;2022-08-21T13:12:59;25.90;99.90
26655;DHT22;14278;50.784;4.630;2022-08-21T13:15:30;25.70;99.90
26655;DHT22;14278;50.784;4.630;2022-08-21T13:17:56;26.20;99.90
26655;DHT22;14278;50.784;4.630;2022-08-21T13:20:39;26.60;99.90
26655;DHT22;14278;50.784;4.630;2022-08-21T13:23:24;26.70;99.90
26655;DHT22;14278;50.784;4.630;2022-08-21T13:25:50;26.70;99.90
26655;DHT22;14278;50.784;4.630;2022-08-21T13:28:16;26.70;99.90
26655;DHT22;14278;50.784;4.630;2022-08-21T13:30:44;26.90;99.90
26655;DHT22;14278;50.784;4.630;2022-08-21T13:33:12;26.90;99.90
26655;DHT22;14278;50.784;4.630;2022-08-21T13:38:29;26.90;99.90
26655;DHT22;14278;50.784;4.630;2022-08-21T13:40:59;26.70;99.90
26655;DHT22;14278;50.784;4.630;2022-08-21T13:43:32;26.50;99.90
26655;DHT22;14278;50.784;4.630;2022-08-21T13:45:58;26.50;99.90
26655;DHT22;14278;50.784;4.630;2022-08-21T13:48:28;26.30;99.90
26655;DHT22;14278;50.784;4.630;2022-08-21T13:50:54;26.30;99.90
26655;DHT22;14278;50.784;4.630;2022-08-21T13:53:35;26.50;99.90
26655;DHT22;14278;50.784;4.630;2022-08-21T13:56:03;26.60;99.90
26655;DHT22;14278;50.784;4.630;2022-08-21T13:58:33;26.40;99.90
26655;DHT22;14278;50.784;4.630;2022-08-21T14:01:00;26.20;99.90
26655;DHT22;14278;50.784;4.630;2022-08-21T14:03:38;25.90;99.90
26655;DHT22;14278;50.784;4.630;2022-08-21T14:06:24;26.40;99.90
26655;DHT22;14278;50.784;4.630;2022-08-21T14:08:58;26.50;99.90
26655;DHT22;14278;50.784;4.630;2022-08-21T14:11:25;26.10;99.90
26655;DHT22;14278;50.784;4.630;2022-08-21T14:13:59;25.90;99.90
26655;DHT22;14278;50.784;4.630;2022-08-21T14:16:29;26.30;99.90
26655;DHT22;14278;50.784;4.630;2022-08-21T14:21:37;26.30;99.90
26655;DHT22;14278;50.784;4.630;2022-08-21T14:24:11;26.50;99.90
26655;DHT22;14278;50.784;4.630;2022-08-21T14:26:54;26.90;99.90
26655;DHT22;14278;50.784;4.630;2022-08-21T14:29:23;26.80;99.90
26655;DHT22;14278;50.784;4.630;2022-08-21T14:31:55;27.10;99.90
26655;DHT22;14278;50.784;4.630;2022-08-21T14:34:24;27.40;99.90
26655;DHT22;14278;50.784;4.630;2022-08-21T14:36:50;27.70;99.90
26655;DHT22;14278;50.784;4.630;2022-08-21T14:39:16;27.70;99.90
26655;DHT22;14278;50.784;4.630;2022-08-21T14:41:44;27.30;99.90
26655;DHT22;14278;50.784;4.630;2022-08-21T14:44:16;26.90;99.90
26655;DHT22;14278;50.784;4.630;2022-08-21T14:46:42;26.90;99.90
26655;DHT22;14278;50.784;4.630;2022-08-21T14:49:08;26.40;99.90
26655;DHT22;14278;50.784;4.630;2022-08-21T14:51:34;26.50;99.90
26655;DHT22;14278;50.784;4.630;2022-08-21T14:54:00;26.40;99.90
26655;DHT22;14278;50.784;4.630;2022-08-21T14:56:26;26.30;99.90
26655;DHT22;14278;50.784;4.630;2022-08-21T14:58:52;26.50;99.90
26655;DHT22;14278;50.784;4.630;2022-08-21T15:01:21;26.10;99.90
26655;DHT22;14278;50.784;4.630;2022-08-21T15:03:48;26.40;99.90
26655;DHT22;14278;50.784;4.630;2022-08-21T15:06:15;26.20;99.90
26655;DHT22;14278;50.784;4.630;2022-08-21T15:08:42;26.20;99.90
26655;DHT22;14278;50.784;4.630;2022-08-21T15:11:18;26.10;99.90
26655;DHT22;14278;50.784;4.630;2022-08-21T15:13:45;26.10;99.90
26655;DHT22;14278;50.784;4.630;2022-08-21T15:16:12;25.90;99.90
26655;DHT22;14278;50.784;4.630;2022-08-21T15:18:39;26.20;99.90
26655;DHT22;14278;50.784;4.630;2022-08-21T15:21:05;26.60;99.90
26655;DHT22;14278;50.784;4.630;2022-08-21T15:23:31;26.70;99.90
26655;DHT22;14278;50.784;4.630;2022-08-21T15:25:57;26.50;99.90
26655;DHT22;14278;50.784;4.630;2022-08-21T15:28:24;26.10;99.90
26655;DHT22;14278;50.784;4.630;2022-08-21T15:30:50;26.40;99.90
26655;DHT22;14278;50.784;4.630;2022-08-21T15:33:17;26.70;99.90
26655;DHT22;14278;50.784;4.630;2022-08-21T15:35:43;26.50;99.90
26655;DHT22;14278;50.784;4.630;2022-08-21T15:38:09;26.70;99.90
26655;DHT22;14278;50.784;4.630;2022-08-21T15:40:35;26.60;99.90
26655;DHT22;14278;50.784;4.630;2022-08-21T15:43:04;26.50;99.90
26655;DHT22;14278;50.784;4.630;2022-08-21T15:45:31;26.50;99.90
26655;DHT22;14278;50.784;4.630;2022-08-21T15:47:58;26.10;99.90
26655;DHT22;14278;50.784;4.630;2022-08-21T15:50:25;26.10;99.90
26655;DHT22;14278;50.784;4.630;2022-08-21T15:52:51;26.10;99.90
26655;DHT22;14278;50.784;4.630;2022-08-21T15:55:18;26.20;99.90
26655;DHT22;14278;50.784;4.630;2022-08-21T15:57:48;26.40;99.90
26655;DHT22;14278;50.784;4.630;2022-08-21T16:00:16;26.50;99.90
26655;DHT22;14278;50.784;4.630;2022-08-21T16:02:45;26.40;99.90
26655;DHT22;14278;50.784;4.630;2022-08-21T16:05:12;26.50;99.90
26655;DHT22;14278;50.784;4.630;2022-08-21T16:07:42;26.60;99.90
26655;DHT22;14278;50.784;4.630;2022-08-21T16:10:09;26.10;99.90
26655;DHT22;14278;50.784;4.630;2022-08-21T16:12:38;26.30;99.90
26655;DHT22;14278;50.784;4.630;2022-08-21T16:15:08;26.40;99.90
26655;DHT22;14278;50.784;4.630;2022-08-21T16:17:36;26.40;99.90
26655;DHT22;14278;50.784;4.630;2022-08-21T16:20:08;26.30;99.90
26655;DHT22;14278;50.784;4.630;2022-08-21T16:22:34;26.40;99.90
26655;DHT22;14278;50.784;4.630;2022-08-21T16:25:01;26.20;99.90
26655;DHT22;14278;50.784;4.630;2022-08-21T16:27:27;26.20;99.90
26655;DHT22;14278;50.784;4.630;2022-08-21T16:29:53;26.50;99.90
26655;DHT22;14278;50.784;4.630;2022-08-21T16:32:19;26.20;99.90
26655;DHT22;14278;50.784;4.630;2022-08-21T16:34:47;26.10;99.90
26655;DHT22;14278;50.784;4.630;2022-08-21T16:37:14;26.00;99.90
26655;DHT22;14278;50.784;4.630;2022-08-21T16:39:41;25.90;99.90
26655;DHT22;14278;50.784;4.630;2022-08-21T16:42:11;25.90;99.90
26655;DHT22;14278;50.784;4.630;2022-08-21T16:44:38;25.90;99.90
26655;DHT22;14278;50.784;4.630;2022-08-21T16:47:04;25.70;99.90
26655;DHT22;14278;50.784;4.630;2022-08-21T16:49:29;25.80;99.90